Time;durP1;ratioP1;P1;durP2;ratioP2;P2;SDS_P1;SDS_P2;PMS_P1;PMS_P2;Temp;Humidity;BMP_temperature;BMP_pressure;BME280_temperature;BME280_humidity;BME280_pressure;Samples;Min_cycle;Max_cycle;Signal;HPM_P1;HPM_P2
2024/04/23 00:00:20;;;;;;;9.63;6.67;;;1.80;1.00;;;;;;5382231;26;20293;-79
2024/04/23 00:02:46;;;;;;;9.73;6.23;;;1.80;1.00;;;;;;5382422;26;20344;-78
2024/04/23 00:05:15;;;;;;;9.03;6.10;;;1.90;1.00;;;;;;5382875;26;20732;-80
2024/04/23 00:07:41;;;;;;;7.73;5.83;;;1.90;1.00;;;;;;5381570;26;20384;-79
2024/04/23 00:10:13;;;;;;;9.87;5.73;;;1.90;1.00;;;;;;5375427;26;20250;-78
2024/04/23 00:12:39;;;;;;;9.87;5.60;;;1.90;1.00;;;;;;5383437;26;20280;-77
2024/04/23 00:15:08;;;;;;;9.47;5.20;;;1.80;1.00;;;;;;5368332;26;20317;-77
2024/04/23 00:17:34;;;;;;;10.90;5.50;;;1.70;1.00;;;;;;5382501;26;20296;-79
2024/04/23 00:20:03;;;;;;;7.37;4.80;;;1.40;99.90;;;;;;5381854;26;20249;-77
2024/04/23 00:22:29;;;;;;;7.97;5.50;;;1.20;1.00;;;;;;5374821;26;20288;-78
2024/04/23 00:24:58;;;;;;;7.97;6.40;;;1.50;1.00;;;;;;5369115;26;20242;-78
2024/04/23 00:27:27;;;;;;;9.27;5.63;;;1.60;1.00;;;;;;5378990;26;20397;-77
2024/04/23 00:29:55;;;;;;;8.73;5.30;;;1.50;1.00;;;;;;5382640;26;20284;-78
2024/04/23 00:32:21;;;;;;;8.20;5.83;;;1.50;1.00;;;;;;5381590;26;20769;-78
2024/04/23 00:34:50;;;;;;;10.03;5.93;;;1.50;1.00;;;;;;5383376;26;20261;-78
2024/04/23 00:37:16;;;;;;;10.17;5.47;;;1.40;1.00;;;;;;5382293;26;20285;-78
2024/04/23 00:39:45;;;;;;;12.07;5.60;;;1.40;1.00;;;;;;5382603;26;21005;-77
2024/04/23 00:42:11;;;;;;;8.60;5.50;;;1.30;1.00;;;;;;5369229;26;20277;-78
2024/04/23 00:44:43;;;;;;;6.80;5.43;;;1.20;1.00;;;;;;5382194;26;20241;-79
2024/04/23 00:47:09;;;;;;;11.87;6.37;;;1.20;1.00;;;;;;5376424;26;20230;-78
2024/04/23 00:49:41;;;;;;;9.40;6.00;;;1.20;1.00;;;;;;5375180;26;20241;-78
2024/04/23 00:52:07;;;;;;;8.57;5.23;;;1.30;1.00;;;;;;5379706;26;20229;-79
2024/04/23 00:54:36;;;;;;;10.67;5.53;;;1.20;1.00;;;;;;5377509;26;20682;-78
2024/04/23 00:57:02;;;;;;;8.37;5.00;;;1.00;1.00;;;;;;5379211;26;20253;-78
2024/04/23 00:59:31;;;;;;;9.03;5.73;;;1.10;1.00;;;;;;5377291;26;20264;-79
2024/04/23 01:02:01;;;;;;;9.00;5.67;;;1.10;99.90;;;;;;5377733;26;20250;-80
2024/04/23 01:04:30;;;;;;;9.07;5.93;;;1.00;99.90;;;;;;5381659;26;20288;-78
2024/04/23 01:06:56;;;;;;;10.23;6.23;;;1.10;99.90;;;;;;5382932;26;20330;-78
2024/04/23 01:09:25;;;;;;;8.90;6.50;;;1.10;99.90;;;;;;5380798;26;20242;-78
2024/04/23 01:11:51;;;;;;;9.93;6.30;;;1.10;1.00;;;;;;5379236;26;20241;-78
2024/04/23 01:14:20;;;;;;;9.63;6.57;;;1.00;99.90;;;;;;5381171;26;20280;-77
2024/04/23 01:16:48;;;;;;;9.43;5.37;;;1.00;1.00;;;;;;5376494;26;20249;-78
2024/04/23 01:19:30;;;;;;;10.60;6.67;;;1.00;1.00;;;;;;5374704;26;20230;-78
2024/04/23 01:22:03;;;;;;;9.43;6.67;;;1.20;1.00;;;;;;5377534;26;20250;-79
2024/04/23 01:24:37;;;;;;;11.23;7.03;;;1.30;1.00;;;;;;5382365;26;20587;-78
2024/04/23 01:27:06;;;;;;;10.53;6.90;;;1.30;1.00;;;;;;5382366;26;20383;-78
2024/04/23 01:29:36;;;;;;;9.60;6.73;;;1.20;99.90;;;;;;5379635;26;20288;-78
2024/04/23 01:32:04;;;;;;;11.27;6.90;;;1.30;99.90;;;;;;5382267;26;20238;-78
2024/04/23 01:34:36;;;;;;;11.13;6.80;;;1.30;99.90;;;;;;5379971;26;20245;-77
2024/04/23 01:37:03;;;;;;;8.63;6.37;;;1.30;1.00;;;;;;5380975;26;20287;-78
2024/04/23 01:39:33;;;;;;;10.27;6.90;;;1.30;1.00;;;;;;5383221;26;20234;-78
2024/04/23 01:42:00;;;;;;;12.77;6.67;;;1.30;99.90;;;;;;5377311;26;20249;-77
2024/04/23 01:44:32;;;;;;;9.97;6.10;;;1.40;99.90;;;;;;5380508;26;20238;-78
2024/04/23 01:46:58;;;;;;;11.77;7.07;;;1.30;99.90;;;;;;5372607;26;20650;-77
2024/04/23 01:49:27;;;;;;;10.87;7.50;;;1.30;99.90;;;;;;5379902;26;20279;-78
2024/04/23 01:51:54;;;;;;;9.63;6.40;;;1.30;99.90;;;;;;5379872;26;20617;-79
2024/04/23 01:54:23;;;;;;;10.37;6.60;;;1.20;99.90;;;;;;5382090;26;20515;-78
2024/04/23 01:56:49;;;;;;;10.07;6.13;;;1.10;99.90;;;;;;5372586;26;20320;-78
2024/04/23 01:59:18;;;;;;;10.83;6.70;;;1.10;99.90;;;;;;5382032;26;20351;-79
2024/04/23 02:01:52;;;;;;;10.13;6.73;;;1.20;99.90;;;;;;5370271;26;20376;-78
2024/04/23 02:04:22;;;;;;;9.77;6.37;;;1.20;99.90;;;;;;5374056;26;20237;-80
2024/04/23 02:06:49;;;;;;;8.90;6.47;;;1.10;99.90;;;;;;5381533;26;20843;-78
2024/04/23 02:09:18;;;;;;;14.00;6.47;;;1.10;99.90;;;;;;5381729;26;20237;-78
2024/04/23 02:11:44;;;;;;;8.60;5.60;;;1.00;99.90;;;;;;5376481;26;20487;-79
2024/04/23 02:14:13;;;;;;;11.47;6.83;;;0.90;47.40;;;;;;5373848;26;20331;-78
2024/04/23 02:16:39;;;;;;;7.87;5.67;;;0.80;68.10;;;;;;5383646;26;20363;-78
2024/04/23 02:19:10;;;;;;;7.87;6.20;;;0.80;99.90;;;;;;5382535;26;20242;-78
2024/04/23 02:21:36;;;;;;;9.67;6.90;;;0.70;99.90;;;;;;5380344;26;20329;-79
2024/04/23 02:24:05;;;;;;;8.97;6.00;;;0.70;99.90;;;;;;5385391;26;20245;-78
2024/04/23 02:26:32;;;;;;;10.10;6.93;;;0.70;1.00;;;;;;5380912;26;20375;-77
2024/04/23 02:29:00;;;;;;;10.73;6.37;;;0.70;1.00;;;;;;5381554;26;20315;-78
2024/04/23 02:31:26;;;;;;;10.27;7.03;;;0.70;1.00;;;;;;5380052;26;20277;-78
2024/04/23 02:33:55;;;;;;;9.07;5.90;;;0.70;1.00;;;;;;5390752;26;20719;-80
2024/04/23 02:36:24;;;;;;;11.30;6.63;;;0.60;1.00;;;;;;5383591;26;20682;-77
2024/04/23 02:38:53;;;;;;;10.57;6.93;;;0.70;1.00;;;;;;5384436;26;20279;-78
2024/04/23 02:41:19;;;;;;;10.20;7.17;;;0.60;1.00;;;;;;5384505;26;20225;-80
2024/04/23 02:43:47;;;;;;;10.73;7.10;;;0.60;1.00;;;;;;5378490;26;20241;-80
2024/04/23 02:46:13;;;;;;;11.03;6.70;;;0.70;1.00;;;;;;5383206;26;20292;-79
2024/04/23 02:48:42;;;;;;;14.97;8.70;;;0.60;30.80;;;;;;5389095;26;20245;-79
2024/04/23 02:51:08;;;;;;;13.93;8.40;;;0.70;99.90;;;;;;5383164;26;20242;-78
2024/04/23 02:53:39;;;;;;;13.17;8.63;;;0.70;99.90;;;;;;5382068;26;20766;-79
2024/04/23 02:56:06;;;;;;;10.67;7.73;;;0.70;99.90;;;;;;5382475;26;20245;-78
2024/04/23 02:58:35;;;;;;;12.33;8.00;;;0.80;99.90;;;;;;5384084;26;20328;-77
2024/04/23 03:01:01;;;;;;;12.63;7.97;;;0.80;1.00;;;;;;5376817;26;20354;-79
2024/04/23 03:03:30;;;;;;;12.47;7.83;;;0.80;1.00;;;;;;5376276;26;20295;-79
2024/04/23 03:05:56;;;;;;;13.60;8.73;;;0.70;11.20;;;;;;5384706;26;20611;-79
2024/04/23 03:08:25;;;;;;;12.33;8.00;;;0.70;1.00;;;;;;5384688;26;20301;-78
2024/04/23 03:10:54;;;;;;;12.17;7.63;;;0.70;8.60;;;;;;5379949;26;20242;-78
2024/04/23 03:13:22;;;;;;;16.50;7.87;;;0.50;1.00;;;;;;5377077;26;20253;-78
2024/04/23 03:15:49;;;;;;;13.17;8.73;;;0.50;99.90;;;;;;5383740;26;20237;-79
2024/04/23 03:18:17;;;;;;;13.00;8.37;;;0.50;99.90;;;;;;5384658;26;20262;-78
2024/04/23 03:20:43;;;;;;;14.57;8.70;;;0.50;99.90;;;;;;5383562;26;20597;-77
2024/04/23 03:23:12;;;;;;;14.47;9.17;;;0.60;99.90;;;;;;5377279;26;21360;-79
2024/04/23 03:25:38;;;;;;;16.00;9.50;;;0.60;99.90;;;;;;5380783;26;20574;-78
2024/04/23 03:28:10;;;;;;;13.80;7.97;;;0.60;99.90;;;;;;5383811;26;20358;-80
2024/04/23 03:30:36;;;;;;;12.47;8.50;;;0.40;99.90;;;;;;5376494;26;20659;-80
2024/04/23 03:33:05;;;;;;;12.93;8.43;;;0.40;9.00;;;;;;5377383;26;20292;-80
2024/04/23 03:35:31;;;;;;;13.10;8.27;;;0.30;1.00;;;;;;5373285;26;20276;-78
2024/04/23 03:37:59;;;;;;;12.83;7.60;;;0.30;99.90;;;;;;5375225;26;20554;-78
2024/04/23 03:40:28;;;;;;;11.90;7.90;;;0.20;1.00;;;;;;5376419;26;20292;-80
2024/04/23 03:42:57;;;;;;;12.57;8.37;;;0.10;1.00;;;;;;5378239;26;20249;-79
2024/04/23 03:45:28;;;;;;;13.63;7.80;;;0.20;1.00;;;;;;5376740;26;20245;-79
2024/04/23 03:47:57;;;;;;;11.33;8.13;;;0.40;1.00;;;;;;5375898;26;20246;-80
2024/04/23 03:50:23;;;;;;;10.83;7.77;;;0.10;1.00;;;;;;5380713;26;20578;-79
2024/04/23 03:52:52;;;;;;;13.07;8.03;;;0.20;1.00;;;;;;5382328;26;20237;-78
2024/04/23 03:55:18;;;;;;;13.80;8.73;;;0.30;1.00;;;;;;5383394;26;20241;-80
2024/04/23 03:57:47;;;;;;;13.60;8.27;;;0.40;1.00;;;;;;5376903;26;20303;-81
2024/04/23 04:00:14;;;;;;;11.57;7.50;;;0.40;1.00;;;;;;5368512;26;20745;-80
2024/04/23 04:08:15;;;;;;;12.07;7.63;;;0.50;1.00;;;;;;5383757;26;20280;-81
2024/04/23 04:10:43;;;;;;;14.40;7.93;;;0.40;1.00;;;;;;5379564;26;20301;-81
2024/04/23 04:13:12;;;;;;;12.63;8.27;;;0.40;1.00;;;;;;5380652;26;20430;-79
2024/04/23 04:15:41;;;;;;;15.10;8.17;;;0.40;1.00;;;;;;5374275;26;20242;-80
2024/04/23 04:18:10;;;;;;;13.53;8.17;;;0.20;1.00;;;;;;5369522;26;20424;-80
2024/04/23 04:20:39;;;;;;;12.37;7.57;;;0.20;1.00;;;;;;5363254;26;20309;-78
2024/04/23 04:23:08;;;;;;;12.53;8.07;;;0.60;1.00;;;;;;5371686;26;20747;-80
2024/04/23 04:25:34;;;;;;;11.77;8.37;;;0.70;1.00;;;;;;5370475;26;20293;-80
2024/04/23 04:28:03;;;;;;;11.63;7.53;;;0.70;1.00;;;;;;5368652;26;20301;-81
2024/04/23 04:30:29;;;;;;;10.77;6.80;;;1.10;99.90;;;;;;5364632;26;20247;-81
2024/04/23 04:32:58;;;;;;;17.27;8.43;;;1.10;1.00;;;;;;5373295;26;20640;-79
2024/04/23 04:35:26;;;;;;;13.17;7.40;;;1.20;99.90;;;;;;5372719;26;20245;-80
2024/04/23 04:37:55;;;;;;;14.70;7.80;;;1.40;99.90;;;;;;5385789;26;20238;-80
2024/04/23 04:40:21;;;;;;;12.67;7.80;;;2.10;1.00;;;;;;5385351;26;20341;-79
2024/04/23 04:42:50;;;;;;;11.47;6.77;;;2.80;99.90;;;;;;5385683;26;20249;-78
2024/04/23 04:45:17;;;;;;;12.80;7.13;;;3.40;99.90;;;;;;5385372;26;20217;-79
2024/04/23 04:47:48;;;;;;;11.33;6.83;;;3.70;99.90;;;;;;5385036;26;20277;-79
2024/04/23 04:50:15;;;;;;;10.57;6.63;;;3.50;1.00;;;;;;5385811;26;20234;-78
2024/04/23 04:52:46;;;;;;;11.23;6.83;;;3.20;1.00;;;;;;5385674;26;20222;-80
2024/04/23 04:55:12;;;;;;;9.43;6.73;;;2.80;1.00;;;;;;5385660;26;20266;-78
2024/04/23 04:57:41;;;;;;;11.13;7.30;;;2.60;1.00;;;;;;5384967;26;20237;-80
2024/04/23 05:00:08;;;;;;;9.93;6.60;;;2.60;1.00;;;;;;5384117;26;20229;-80
2024/04/23 05:02:37;;;;;;;11.03;7.00;;;2.80;99.90;;;;;;5384260;26;20234;-79
2024/04/23 05:05:04;;;;;;;14.40;7.00;;;3.10;1.00;;;;;;5383847;26;20569;-80
2024/04/23 05:07:33;;;;;;;11.77;7.13;;;3.70;1.00;;;;;;5383755;26;20238;-80
2024/04/23 05:10:01;;;;;;;11.77;7.57;;;3.90;1.00;;;;;;5384541;26;20241;-79
2024/04/23 05:12:30;;;;;;;12.10;7.30;;;4.30;1.00;;;;;;5385453;26;20261;-79
2024/04/23 05:14:56;;;;;;;13.10;7.20;;;3.80;99.90;;;;;;5384811;26;20276;-78
2024/04/23 05:17:25;;;;;;;13.23;7.53;;;3.40;99.90;;;;;;5384483;26;20238;-79
2024/04/23 05:19:51;;;;;;;11.87;7.13;;;3.40;1.00;;;;;;5385167;26;20331;-79
2024/04/23 05:22:22;;;;;;;12.97;7.53;;;3.20;1.00;;;;;;5385801;26;20242;-79
2024/04/23 05:24:49;;;;;;;10.77;7.93;;;3.20;1.00;;;;;;5386229;26;20213;-79
2024/04/23 05:27:20;;;;;;;12.07;7.70;;;3.80;1.00;;;;;;5385124;26;20304;-80
2024/04/23 05:29:53;;;;;;;10.77;7.47;;;4.60;1.00;;;;;;5385902;26;20570;-78
2024/04/23 05:35:07;;;;;;;10.10;6.97;;;3.80;99.90;;;;;;5388236;26;20682;-79
2024/04/23 05:37:36;;;;;;;11.20;7.27;;;3.50;1.00;;;;;;5385777;26;20237;-79
2024/04/23 05:40:05;;;;;;;14.87;8.20;;;3.40;1.00;;;;;;5385532;26;20467;-80
2024/04/23 05:42:37;;;;;;;11.63;6.97;;;3.50;1.00;;;;;;5385354;26;20267;-79
2024/04/23 05:45:06;;;;;;;11.60;6.43;;;3.70;1.00;;;;;;5385632;26;20226;-79
2024/04/23 05:47:35;;;;;;;12.97;7.50;;;3.80;1.00;;;;;;5385627;26;20346;-79
2024/04/23 05:50:41;;;;;;;11.67;7.43;;;3.60;99.90;;;;;;5384742;26;20248;-80
2024/04/23 05:53:47;;;;;;;11.10;6.50;;;3.50;1.00;;;;;;5359595;26;20838;-80
2024/04/23 05:56:16;;;;;;;12.43;6.73;;;3.70;99.90;;;;;;5384634;26;20221;-79
2024/04/23 05:58:44;;;;;;;11.33;7.27;;;3.40;99.90;;;;;;5391250;26;20246;-80
2024/04/23 06:01:18;;;;;;;13.80;7.87;;;4.20;99.90;;;;;;5392208;26;20637;-80
2024/04/23 06:03:47;;;;;;;13.43;7.03;;;4.60;1.00;;;;;;5391254;26;20225;-79
2024/04/23 06:06:13;;;;;;;12.57;7.13;;;4.50;1.00;;;;;;5391778;26;20253;-79
2024/04/23 06:08:41;;;;;;;13.37;7.73;;;4.30;1.00;;;;;;5391201;26;20285;-80
2024/04/23 06:11:08;;;;;;;14.53;7.67;;;4.00;42.20;;;;;;5377779;26;20237;-80
2024/04/23 06:13:37;;;;;;;12.23;7.70;;;4.40;99.90;;;;;;5391814;26;20747;-79
2024/04/23 06:16:11;;;;;;;11.90;7.00;;;4.40;3.80;;;;;;5391583;26;20743;-78
2024/04/23 06:18:39;;;;;;;12.87;7.93;;;4.10;99.10;;;;;;5391902;26;20221;-79
2024/04/23 06:21:08;;;;;;;11.50;7.23;;;4.00;99.90;;;;;;5391492;26;20261;-80
2024/04/23 06:23:37;;;;;;;14.67;8.10;;;4.00;99.90;;;;;;5391478;26;20222;-79
2024/04/23 06:26:08;;;;;;;13.00;7.77;;;4.00;99.90;;;;;;5392154;26;20263;-80
2024/04/23 06:28:35;;;;;;;13.13;7.93;;;4.40;99.90;;;;;;5391637;26;20244;-79
2024/04/23 06:31:05;;;;;;;13.23;8.13;;;4.80;97.80;;;;;;5391701;26;20295;-80
2024/04/23 06:33:34;;;;;;;16.83;8.33;;;6.00;1.00;;;;;;5391049;26;20249;-79
2024/04/23 06:36:03;;;;;;;13.00;7.80;;;6.20;1.00;;;;;;5391265;26;20594;-81
2024/04/23 06:38:29;;;;;;;11.40;7.40;;;6.10;1.00;;;;;;5391572;26;20295;-79
2024/04/23 06:40:58;;;;;;;13.40;7.93;;;6.00;1.00;;;;;;5390780;26;20310;-78
2024/04/23 06:43:24;;;;;;;11.90;7.77;;;6.10;1.00;;;;;;5390308;26;20618;-78
2024/04/23 06:45:53;;;;;;;13.97;7.43;;;6.60;1.00;;;;;;5390920;26;20249;-79
2024/04/23 06:48:19;;;;;;;12.33;7.57;;;6.40;1.00;;;;;;5390037;26;20249;-79
2024/04/23 06:50:50;;;;;;;13.77;7.40;;;7.80;1.00;;;;;;5391364;26;20238;-80
2024/04/23 06:53:17;;;;;;;13.00;7.80;;;7.00;1.00;;;;;;5391628;26;20807;-80
2024/04/23 06:55:45;;;;;;;12.63;7.63;;;7.60;99.90;;;;;;5392229;26;20217;-80
2024/04/23 06:58:12;;;;;;;14.70;8.07;;;8.30;99.90;;;;;;5391465;26;20233;-80
2024/04/23 07:00:40;;;;;;;12.07;8.13;;;7.80;99.90;;;;;;5391215;26;20276;-79
2024/04/23 07:03:06;;;;;;;12.90;7.80;;;7.80;99.90;;;;;;5392179;26;20320;-80
2024/04/23 07:05:35;;;;;;;13.93;8.37;;;7.90;99.90;;;;;;5390712;26;20218;-80
2024/04/23 07:08:05;;;;;;;12.67;8.83;;;8.30;99.90;;;;;;5389508;26;20841;-80
2024/04/23 07:10:35;;;;;;;11.40;8.00;;;9.60;99.90;;;;;;5385821;26;20329;-80
2024/04/23 07:13:01;;;;;;;15.70;8.67;;;8.70;1.00;;;;;;5387261;26;20280;-80
2024/04/23 07:15:29;;;;;;;17.23;9.10;;;8.00;5.00;;;;;;5385625;26;20221;-80
2024/04/23 07:17:56;;;;;;;13.33;8.40;;;7.30;19.00;;;;;;5386334;26;20360;-80
2024/04/23 07:20:24;;;;;;;12.83;8.67;;;8.20;99.90;;;;;;5386420;26;20570;-80
2024/04/23 07:22:50;;;;;;;14.90;7.83;;;8.00;36.40;;;;;;5387091;26;20268;-80
2024/04/23 07:25:22;;;;;;;13.40;7.77;;;7.30;80.20;;;;;;5386702;26;20707;-80
2024/04/23 07:27:48;;;;;;;14.97;9.23;;;7.50;55.90;;;;;;5386978;26;20260;-80
2024/04/23 07:30:17;;;;;;;14.10;7.60;;;8.30;15.90;;;;;;5387618;26;20217;-79
2024/04/23 07:32:45;;;;;;;13.40;8.63;;;7.70;1.00;;;;;;5386679;26;20727;-79
2024/04/23 07:35:13;;;;;;;12.80;8.47;;;7.40;99.90;;;;;;5386857;26;20222;-79
2024/04/23 07:37:39;;;;;;;14.13;8.10;;;7.00;72.10;;;;;;5386871;26;20572;-80
2024/04/23 07:40:09;;;;;;;12.37;7.87;;;6.70;99.90;;;;;;5386636;26;20704;-80
2024/04/23 07:42:38;;;;;;;14.10;8.53;;;6.90;99.90;;;;;;5386511;26;20558;-80
2024/04/23 07:45:07;;;;;;;15.87;9.30;;;6.70;99.90;;;;;;5385750;26;20222;-79
2024/04/23 07:47:34;;;;;;;14.10;8.40;;;6.50;99.90;;;;;;5385781;26;20336;-79
2024/04/23 07:50:02;;;;;;;13.23;8.03;;;6.50;99.90;;;;;;5385909;26;20217;-79
2024/04/23 07:52:31;;;;;;;14.53;8.20;;;6.50;99.90;;;;;;5386047;26;20343;-79
2024/04/23 07:54:57;;;;;;;16.87;8.93;;;6.40;99.90;;;;;;5385832;26;20229;-79
2024/04/23 07:57:26;;;;;;;12.77;8.67;;;6.50;1.00;;;;;;5386329;26;20280;-79
2024/04/23 07:59:54;;;;;;;15.63;8.40;;;6.40;1.00;;;;;;5385925;26;20213;-79
2024/04/23 08:02:25;;;;;;;15.33;8.87;;;6.60;1.00;;;;;;5386380;26;20566;-78
2024/04/23 08:04:51;;;;;;;14.33;8.47;;;6.70;1.00;;;;;;5386618;26;20690;-79
2024/04/23 08:07:20;;;;;;;12.00;8.03;;;7.00;99.90;;;;;;5385952;26;20221;-78
2024/04/23 08:09:46;;;;;;;13.67;7.73;;;7.00;99.90;;;;;;5386186;26;20276;-79
2024/04/23 08:12:15;;;;;;;12.10;8.53;;;7.10;99.90;;;;;;5386886;26;20260;-80
2024/04/23 08:14:41;;;;;;;12.60;8.23;;;7.20;99.90;;;;;;5386029;26;20221;-80
2024/04/23 08:17:12;;;;;;;16.70;8.77;;;7.20;99.90;;;;;;5386358;26;20309;-80
2024/04/23 08:19:38;;;;;;;14.77;8.43;;;7.00;99.90;;;;;;5385354;26;20218;-80
2024/04/23 08:22:07;;;;;;;13.77;8.33;;;7.40;99.90;;;;;;5385082;26;20229;-80
2024/04/23 08:24:33;;;;;;;13.97;7.73;;;7.30;99.90;;;;;;5384858;26;20237;-80
2024/04/23 08:27:02;;;;;;;14.87;8.57;;;7.10;99.90;;;;;;5385375;26;20563;-79
2024/04/23 08:29:28;;;;;;;17.73;7.90;;;7.40;99.90;;;;;;5385264;26;20210;-80
2024/04/23 08:31:57;;;;;;;13.53;7.97;;;7.80;99.90;;;;;;5385099;26;20735;-80
2024/04/23 08:34:25;;;;;;;14.37;7.63;;;8.00;12.00;;;;;;5385273;26;20222;-80
2024/04/23 08:36:54;;;;;;;14.47;8.27;;;8.20;1.00;;;;;;5385465;26;20252;-80
2024/04/23 08:39:21;;;;;;;11.60;6.93;;;8.00;1.00;;;;;;5385435;26;20301;-80
2024/04/23 08:41:53;;;;;;;11.83;7.20;;;7.80;1.00;;;;;;5385365;26;20226;-79
2024/04/23 08:44:23;;;;;;;12.17;7.60;;;8.00;1.00;;;;;;5385707;26;20712;-79
2024/04/23 08:46:53;;;;;;;12.13;8.07;;;7.80;1.00;;;;;;5386099;26;20815;-80
2024/04/23 08:49:20;;;;;;;11.53;7.50;;;8.10;1.00;;;;;;5385520;26;20241;-80
2024/04/23 08:51:51;;;;;;;11.73;7.40;;;8.10;1.00;;;;;;5385515;26;20597;-79
2024/04/23 08:54:18;;;;;;;12.37;7.77;;;8.40;1.00;;;;;;5385868;26;20652;-79
2024/04/23 08:56:48;;;;;;;15.13;8.47;;;8.70;1.00;;;;;;5384662;26;20319;-79
2024/04/23 08:59:16;;;;;;;10.73;5.80;;;9.10;1.00;;;;;;5384779;26;20711;-79
2024/04/23 09:01:51;;;;;;;9.73;5.93;;;9.00;1.00;;;;;;5384558;26;20284;-79
2024/04/23 09:04:18;;;;;;;10.73;6.93;;;9.00;99.90;;;;;;5377918;26;20240;-80
2024/04/23 09:06:47;;;;;;;9.90;5.80;;;8.60;99.90;;;;;;5384607;26;20220;-79
2024/04/23 09:09:20;;;;;;;9.60;6.00;;;8.50;99.90;;;;;;5384495;26;20319;-80
2024/04/23 09:11:51;;;;;;;7.97;5.20;;;8.50;99.90;;;;;;5384699;26;20213;-79
2024/04/23 09:14:18;;;;;;;8.07;5.57;;;9.20;99.90;;;;;;5384914;26;20222;-80
2024/04/23 09:16:47;;;;;;;10.23;5.83;;;10.10;99.90;;;;;;5384350;26;20213;-80
2024/04/23 09:19:13;;;;;;;8.17;5.07;;;10.20;48.50;;;;;;5383963;26;20566;-79
2024/04/23 09:21:41;;;;;;;7.43;5.13;;;10.80;1.00;;;;;;5384345;26;20256;-79
2024/04/23 09:24:08;;;;;;;8.20;5.23;;;11.60;1.00;;;;;;5385002;26;20221;-80
2024/04/23 09:26:40;;;;;;;6.70;5.20;;;11.50;1.00;;;;;;5384950;26;20259;-79
2024/04/23 09:29:07;;;;;;;6.30;4.13;;;11.40;1.00;;;;;;5384386;26;20249;-79
2024/04/23 09:31:38;;;;;;;5.60;4.43;;;11.40;1.00;;;;;;5383119;26;20269;-80
2024/04/23 09:34:09;;;;;;;8.00;5.23;;;11.70;1.00;;;;;;5383398;26;20607;-80
2024/04/23 09:36:38;;;;;;;6.53;4.30;;;11.40;1.00;;;;;;5360516;26;20289;-80
2024/04/23 09:39:15;;;;;;;10.23;6.07;;;11.80;1.00;;;;;;5348549;26;20676;-80
2024/04/23 09:41:57;;;;;;;7.03;5.20;;;11.60;1.00;;;;;;5348799;26;20649;-80
2024/04/23 09:44:24;;;;;;;6.80;4.87;;;11.30;1.00;;;;;;5365897;26;20316;-80
2024/04/23 09:46:53;;;;;;;7.70;4.87;;;11.50;1.00;;;;;;5375611;26;20289;-80
2024/04/23 09:49:20;;;;;;;6.33;4.90;;;11.70;1.00;;;;;;5384460;26;20249;-80
2024/04/23 09:51:49;;;;;;;7.27;5.27;;;11.80;1.00;;;;;;5383518;26;20226;-79
2024/04/23 09:54:19;;;;;;;8.47;4.80;;;10.80;1.00;;;;;;5383952;26;20217;-80
2024/04/23 09:56:50;;;;;;;7.47;5.37;;;10.70;1.00;;;;;;5383842;26;20221;-79
2024/04/23 09:59:17;;;;;;;6.07;4.37;;;11.60;1.00;;;;;;5382873;26;20306;-79
2024/04/23 10:01:52;;;;;;;6.27;4.27;;;11.90;1.00;;;;;;5383061;26;20314;-79
2024/04/23 10:04:19;;;;;;;7.40;4.50;;;12.10;1.00;;;;;;5383506;26;20229;-79
2024/04/23 10:06:54;;;;;;;6.27;4.93;;;11.60;1.00;;;;;;5384307;26;20232;-79
2024/04/23 10:09:24;;;;;;;7.87;4.63;;;11.60;1.00;;;;;;5383693;26;20244;-79
2024/04/23 10:12:05;;;;;;;6.17;5.03;;;10.90;1.00;;;;;;5384496;26;20293;-79
2024/04/23 10:14:40;;;;;;;5.53;4.67;;;11.40;1.00;;;;;;5384504;26;20221;-79
2024/04/23 10:17:14;;;;;;;7.97;5.00;;;11.70;1.00;;;;;;5383719;26;20341;-80
2024/04/23 10:19:44;;;;;;;7.50;5.00;;;11.60;1.00;;;;;;5383969;26;20320;-79
2024/04/23 10:22:15;;;;;;;6.87;4.77;;;11.60;1.00;;;;;;5384558;26;20288;-79
2024/04/23 10:24:41;;;;;;;6.80;4.87;;;11.20;1.00;;;;;;5384126;26;20248;-79
2024/04/23 10:27:14;;;;;;;8.80;5.13;;;11.00;1.00;;;;;;5384175;26;20781;-79
2024/04/23 10:29:42;;;;;;;10.27;4.57;;;11.70;1.00;;;;;;5384281;26;20253;-79
2024/04/23 10:32:13;;;;;;;27.33;5.67;;;11.40;1.00;;;;;;5384093;26;20610;-79
2024/04/23 10:34:42;;;;;;;6.77;4.70;;;11.20;1.00;;;;;;5374887;26;20281;-79
2024/04/23 10:37:13;;;;;;;9.63;5.33;;;10.90;1.00;;;;;;5378743;26;20276;-80
2024/04/23 10:39:40;;;;;;;7.67;5.23;;;11.10;1.00;;;;;;5383355;26;20294;-81
2024/04/23 10:42:17;;;;;;;9.43;5.30;;;10.90;1.00;;;;;;5382856;26;20278;-80
2024/04/23 10:44:44;;;;;;;7.13;5.33;;;10.80;1.00;;;;;;5386431;26;20252;-81
2024/04/23 10:47:13;;;;;;;9.37;5.57;;;10.60;1.00;;;;;;5386101;26;20237;-80
2024/04/23 10:49:41;;;;;;;7.13;5.10;;;10.60;1.00;;;;;;5351777;26;20222;-80
2024/04/23 10:52:10;;;;;;;7.33;5.50;;;10.70;1.00;;;;;;5378833;26;20249;-80
2024/04/23 10:54:37;;;;;;;7.03;5.20;;;10.60;1.00;;;;;;5386342;26;20221;-81
2024/04/23 10:57:09;;;;;;;8.17;5.20;;;10.40;1.00;;;;;;5386544;26;20673;-80
2024/04/23 10:59:40;;;;;;;7.47;5.00;;;10.50;1.00;;;;;;5387757;26;20221;-80
2024/04/23 11:02:11;;;;;;;7.20;5.20;;;10.60;1.00;;;;;;5387373;26;20256;-80
2024/04/23 11:04:40;;;;;;;6.90;5.03;;;10.40;1.00;;;;;;5386833;26;20270;-80
2024/04/23 11:07:10;;;;;;;6.73;5.10;;;10.60;1.00;;;;;;5386506;26;20245;-80
2024/04/23 11:09:37;;;;;;;7.27;5.40;;;10.80;1.00;;;;;;5386340;26;20233;-80
2024/04/23 11:12:19;;;;;;;8.37;5.77;;;10.30;1.00;;;;;;5387450;26;20319;-80
2024/04/23 11:14:48;;;;;;;7.70;5.07;;;10.20;1.00;;;;;;5387211;26;20256;-80
2024/04/23 11:17:16;;;;;;;8.13;5.23;;;10.20;1.00;;;;;;5387132;26;20229;-79
2024/04/23 11:19:46;;;;;;;5.67;4.87;;;10.80;1.00;;;;;;5386746;26;20210;-79
2024/04/23 11:22:16;;;;;;;7.83;5.20;;;11.50;1.00;;;;;;5367705;26;20736;-79
2024/04/23 11:24:43;;;;;;;5.03;4.20;;;11.30;1.00;;;;;;5386531;26;20248;-80
2024/04/23 11:27:13;;;;;;;5.87;4.50;;;11.70;1.00;;;;;;5386555;26;20696;-79
2024/04/23 11:29:40;;;;;;;6.50;4.40;;;11.10;1.00;;;;;;5386166;26;20229;-80
2024/04/23 11:32:14;;;;;;;6.13;4.57;;;11.10;1.00;;;;;;5386233;26;20267;-80
2024/04/23 11:34:42;;;;;;;7.70;4.80;;;11.30;1.00;;;;;;5386761;26;20315;-79
2024/04/23 11:37:11;;;;;;;5.97;4.60;;;11.40;1.00;;;;;;5388245;26;20284;-77
2024/04/23 11:39:39;;;;;;;6.37;4.57;;;11.40;1.00;;;;;;5391803;26;20627;-78
2024/04/23 11:42:12;;;;;;;5.87;4.70;;;11.20;1.00;;;;;;5377702;26;20250;-81
2024/04/23 11:44:38;;;;;;;5.63;4.77;;;11.20;1.00;;;;;;5376440;26;20241;-80
2024/04/23 11:47:12;;;;;;;6.40;4.20;;;10.80;1.00;;;;;;5392389;26;20233;-78
2024/04/23 11:49:41;;;;;;;4.97;4.17;;;11.30;1.00;;;;;;5392166;26;20280;-78
2024/04/23 11:52:09;;;;;;;6.03;4.47;;;11.50;1.00;;;;;;5390207;26;20309;-80
2024/04/23 11:54:37;;;;;;;7.00;4.20;;;11.30;1.00;;;;;;5385966;26;20238;-82
2024/04/23 11:57:07;;;;;;;5.73;4.33;;;11.10;1.00;;;;;;5368611;26;20294;-80
2024/04/23 11:59:33;;;;;;;6.13;4.60;;;11.30;1.00;;;;;;5389582;26;20241;-82
2024/04/23 12:02:02;;;;;;;7.37;4.33;;;10.80;1.00;;;;;;5391359;26;20279;-81
2024/04/23 12:04:28;;;;;;;5.70;4.57;;;10.70;1.00;;;;;;5391964;26;20245;-81
2024/04/23 12:07:00;;;;;;;5.20;4.40;;;10.80;1.00;;;;;;5386273;26;20250;-82
2024/04/23 12:09:27;;;;;;;7.13;4.43;;;10.80;1.00;;;;;;5391476;26;20336;-76
2024/04/23 12:11:55;;;;;;;4.97;4.43;;;10.90;1.00;;;;;;5388027;26;20331;-80
2024/04/23 12:14:24;;;;;;;6.20;4.23;;;11.00;1.00;;;;;;5390241;26;20570;-81
2024/04/23 12:16:53;;;;;;;6.53;4.50;;;11.10;1.00;;;;;;5384833;26;20580;-82
2024/04/23 12:19:20;;;;;;;7.03;4.30;;;11.10;1.00;;;;;;5391027;26;20238;-80
2024/04/23 12:21:49;;;;;;;5.97;4.70;;;10.90;1.00;;;;;;5381470;26;20241;-81
2024/04/23 12:24:18;;;;;;;7.23;4.67;;;10.80;1.00;;;;;;5378374;26;20751;-78
2024/04/23 12:26:47;;;;;;;6.63;4.70;;;10.90;1.00;;;;;;5392564;26;20237;-78
2024/04/23 12:29:13;;;;;;;5.63;4.43;;;10.90;1.00;;;;;;5390139;26;20296;-80
2024/04/23 12:31:42;;;;;;;8.83;5.60;;;11.00;1.00;;;;;;5381011;26;20258;-79
2024/04/23 12:34:08;;;;;;;7.63;5.20;;;10.90;1.00;;;;;;5383616;26;20249;-78
2024/04/23 12:36:37;;;;;;;5.57;4.60;;;10.90;1.00;;;;;;5386625;26;20281;-79
2024/04/23 12:39:10;;;;;;;7.23;4.53;;;10.90;1.00;;;;;;5386419;26;20352;-79
2024/04/23 12:41:42;;;;;;;6.83;4.73;;;11.20;1.00;;;;;;5376722;26;20322;-77
2024/04/23 12:44:15;;;;;;;6.63;4.60;;;11.10;1.00;;;;;;5390678;26;20325;-80
2024/04/23 12:46:45;;;;;;;6.90;4.60;;;11.10;1.00;;;;;;5389522;26;20241;-80
2024/04/23 12:49:11;;;;;;;7.63;5.13;;;11.20;1.00;;;;;;5380028;26;20288;-78
2024/04/23 12:51:41;;;;;;;6.27;4.77;;;11.50;1.00;;;;;;5388789;26;20245;-82
2024/04/23 12:54:08;;;;;;;6.73;5.30;;;11.30;1.00;;;;;;5391456;26;20280;-80
2024/04/23 12:56:37;;;;;;;8.90;5.03;;;11.50;1.00;;;;;;5384351;26;20291;-78
2024/04/23 12:59:09;;;;;;;7.20;5.20;;;11.00;1.00;;;;;;5384016;26;20287;-79
2024/04/23 13:01:38;;;;;;;6.80;4.47;;;11.10;1.00;;;;;;5381651;26;20624;-80
2024/04/23 13:04:04;;;;;;;6.87;4.60;;;11.30;1.00;;;;;;5374307;26;20293;-80
2024/04/23 13:06:33;;;;;;;5.93;4.47;;;11.20;1.00;;;;;;5379789;26;20230;-79
2024/04/23 13:09:00;;;;;;;5.90;4.40;;;10.90;1.00;;;;;;5378450;26;20243;-80
2024/04/23 13:11:29;;;;;;;6.73;4.67;;;10.60;1.00;;;;;;5378274;26;20246;-81